sensor_id;sensor_type;location;lat;lon;timestamp;P1;durP1;ratioP1;P2;durP2;ratioP2
19301;SDS011;9785;59.362;12.152;2022-08-19T00:01:24;15.63;;;10.23;;
19301;SDS011;9785;59.362;12.152;2022-08-19T00:03:57;11.13;;;9.93;;
19301;SDS011;9785;59.362;12.152;2022-08-19T00:06:26;12.47;;;10.53;;
19301;SDS011;9785;59.362;12.152;2022-08-19T00:08:55;11.90;;;9.93;;
19301;SDS011;9785;59.362;12.152;2022-08-19T00:11:24;12.97;;;10.20;;
19301;SDS011;9785;59.362;12.152;2022-08-19T00:13:54;12.17;;;10.27;;
19301;SDS011;9785;59.362;12.152;2022-08-19T00:16:23;11.30;;;10.07;;
19301;SDS011;9785;59.362;12.152;2022-08-19T00:18:52;11.13;;;9.93;;
19301;SDS011;9785;59.362;12.152;2022-08-19T00:21:24;11.77;;;10.53;;
19301;SDS011;9785;59.362;12.152;2022-08-19T00:23:53;12.80;;;10.10;;
19301;SDS011;9785;59.362;12.152;2022-08-19T00:26:24;10.60;;;9.60;;
19301;SDS011;9785;59.362;12.152;2022-08-19T00:28:53;11.23;;;10.13;;
19301;SDS011;9785;59.362;12.152;2022-08-19T00:31:21;10.93;;;9.80;;
19301;SDS011;9785;59.362;12.152;2022-08-19T00:33:51;11.67;;;9.03;;
19301;SDS011;9785;59.362;12.152;2022-08-19T00:36:20;10.93;;;9.83;;
19301;SDS011;9785;59.362;12.152;2022-08-19T00:38:50;11.67;;;10.47;;
19301;SDS011;9785;59.362;12.152;2022-08-19T00:41:20;11.13;;;9.73;;
19301;SDS011;9785;59.362;12.152;2022-08-19T00:43:59;12.00;;;9.80;;
19301;SDS011;9785;59.362;12.152;2022-08-19T00:46:28;10.90;;;9.80;;
19301;SDS011;9785;59.362;12.152;2022-08-19T00:48:56;12.70;;;9.83;;
19301;SDS011;9785;59.362;12.152;2022-08-19T00:51:26;11.27;;;9.70;;
19301;SDS011;9785;59.362;12.152;2022-08-19T00:53:57;11.87;;;10.37;;
19301;SDS011;9785;59.362;12.152;2022-08-19T00:56:27;12.93;;;10.63;;
19301;SDS011;9785;59.362;12.152;2022-08-19T00:58:57;11.53;;;10.27;;
19301;SDS011;9785;59.362;12.152;2022-08-19T01:01:26;15.03;;;10.10;;
19301;SDS011;9785;59.362;12.152;2022-08-19T01:03:54;11.90;;;10.10;;
19301;SDS011;9785;59.362;12.152;2022-08-19T01:06:24;10.53;;;9.47;;
19301;SDS011;9785;59.362;12.152;2022-08-19T01:08:53;10.57;;;9.57;;
19301;SDS011;9785;59.362;12.152;2022-08-19T01:11:23;12.77;;;9.73;;
19301;SDS011;9785;59.362;12.152;2022-08-19T01:13:52;11.00;;;9.90;;
19301;SDS011;9785;59.362;12.152;2022-08-19T01:16:21;13.17;;;9.57;;
19301;SDS011;9785;59.362;12.152;2022-08-19T01:18:50;9.83;;;8.93;;
19301;SDS011;9785;59.362;12.152;2022-08-19T01:21:20;13.00;;;9.73;;
19301;SDS011;9785;59.362;12.152;2022-08-19T01:23:52;14.03;;;10.20;;
19301;SDS011;9785;59.362;12.152;2022-08-19T01:26:23;13.70;;;11.70;;
19301;SDS011;9785;59.362;12.152;2022-08-19T01:28:53;12.50;;;11.27;;
19301;SDS011;9785;59.362;12.152;2022-08-19T01:31:27;15.07;;;11.77;;
19301;SDS011;9785;59.362;12.152;2022-08-19T01:33:58;14.13;;;12.70;;
19301;SDS011;9785;59.362;12.152;2022-08-19T01:36:31;14.07;;;11.30;;
19301;SDS011;9785;59.362;12.152;2022-08-19T01:39:05;12.53;;;10.13;;
19301;SDS011;9785;59.362;12.152;2022-08-19T01:41:35;13.37;;;10.30;;
19301;SDS011;9785;59.362;12.152;2022-08-19T01:44:04;22.20;;;16.43;;
19301;SDS011;9785;59.362;12.152;2022-08-19T01:46:45;23.73;;;15.03;;
19301;SDS011;9785;59.362;12.152;2022-08-19T01:49:15;17.77;;;13.60;;
19301;SDS011;9785;59.362;12.152;2022-08-19T01:51:43;26.10;;;16.83;;
19301;SDS011;9785;59.362;12.152;2022-08-19T01:54:14;24.53;;;16.63;;
19301;SDS011;9785;59.362;12.152;2022-08-19T01:56:55;26.67;;;16.93;;
19301;SDS011;9785;59.362;12.152;2022-08-19T01:59:24;23.10;;;16.37;;
19301;SDS011;9785;59.362;12.152;2022-08-19T02:01:54;22.13;;;16.87;;
19301;SDS011;9785;59.362;12.152;2022-08-19T02:04:22;24.00;;;16.40;;
19301;SDS011;9785;59.362;12.152;2022-08-19T02:06:51;20.47;;;15.20;;
19301;SDS011;9785;59.362;12.152;2022-08-19T02:09:21;20.63;;;14.13;;
19301;SDS011;9785;59.362;12.152;2022-08-19T02:11:50;21.93;;;14.67;;
19301;SDS011;9785;59.362;12.152;2022-08-19T02:14:19;21.50;;;15.63;;
19301;SDS011;9785;59.362;12.152;2022-08-19T02:16:48;17.57;;;14.43;;
19301;SDS011;9785;59.362;12.152;2022-08-19T02:19:16;13.50;;;10.67;;
19301;SDS011;9785;59.362;12.152;2022-08-19T02:21:45;15.57;;;11.20;;
19301;SDS011;9785;59.362;12.152;2022-08-19T02:24:14;21.77;;;14.83;;
19301;SDS011;9785;59.362;12.152;2022-08-19T02:26:44;19.60;;;13.03;;
19301;SDS011;9785;59.362;12.152;2022-08-19T02:29:13;18.97;;;13.97;;
19301;SDS011;9785;59.362;12.152;2022-08-19T02:31:41;16.80;;;12.80;;
19301;SDS011;9785;59.362;12.152;2022-08-19T02:34:10;19.03;;;13.83;;
19301;SDS011;9785;59.362;12.152;2022-08-19T02:36:39;16.13;;;12.37;;
19301;SDS011;9785;59.362;12.152;2022-08-19T02:39:08;13.17;;;11.43;;
19301;SDS011;9785;59.362;12.152;2022-08-19T02:41:35;13.50;;;9.37;;
19301;SDS011;9785;59.362;12.152;2022-08-19T02:44:05;13.60;;;10.63;;
19301;SDS011;9785;59.362;12.152;2022-08-19T02:46:54;19.73;;;12.50;;
19301;SDS011;9785;59.362;12.152;2022-08-19T02:49:23;24.43;;;13.70;;
19301;SDS011;9785;59.362;12.152;2022-08-19T02:51:51;23.67;;;15.53;;
19301;SDS011;9785;59.362;12.152;2022-08-19T02:54:20;24.30;;;16.03;;
19301;SDS011;9785;59.362;12.152;2022-08-19T02:56:48;20.83;;;15.47;;
19301;SDS011;9785;59.362;12.152;2022-08-19T02:59:19;15.63;;;12.83;;
19301;SDS011;9785;59.362;12.152;2022-08-19T03:01:48;16.80;;;11.17;;
19301;SDS011;9785;59.362;12.152;2022-08-19T03:04:16;16.77;;;12.50;;
19301;SDS011;9785;59.362;12.152;2022-08-19T03:06:46;22.97;;;14.20;;
19301;SDS011;9785;59.362;12.152;2022-08-19T03:09:15;16.10;;;13.23;;
19301;SDS011;9785;59.362;12.152;2022-08-19T03:11:44;19.77;;;14.00;;
19301;SDS011;9785;59.362;12.152;2022-08-19T03:14:19;21.17;;;15.07;;
19301;SDS011;9785;59.362;12.152;2022-08-19T03:16:48;27.90;;;16.23;;
19301;SDS011;9785;59.362;12.152;2022-08-19T03:19:17;27.77;;;17.03;;
19301;SDS011;9785;59.362;12.152;2022-08-19T03:21:47;20.00;;;15.53;;
19301;SDS011;9785;59.362;12.152;2022-08-19T03:24:16;23.67;;;15.27;;
19301;SDS011;9785;59.362;12.152;2022-08-19T03:26:46;28.43;;;16.50;;
19301;SDS011;9785;59.362;12.152;2022-08-19T03:29:16;27.23;;;16.83;;
19301;SDS011;9785;59.362;12.152;2022-08-19T03:31:57;31.17;;;17.80;;
19301;SDS011;9785;59.362;12.152;2022-08-19T03:34:28;26.70;;;17.23;;
19301;SDS011;9785;59.362;12.152;2022-08-19T03:36:57;24.57;;;16.27;;
19301;SDS011;9785;59.362;12.152;2022-08-19T03:39:27;24.27;;;15.33;;
19301;SDS011;9785;59.362;12.152;2022-08-19T03:41:55;23.47;;;15.73;;
19301;SDS011;9785;59.362;12.152;2022-08-19T03:44:46;22.07;;;14.80;;
19301;SDS011;9785;59.362;12.152;2022-08-19T03:47:16;23.23;;;14.73;;
19301;SDS011;9785;59.362;12.152;2022-08-19T03:49:44;21.37;;;14.43;;
19301;SDS011;9785;59.362;12.152;2022-08-19T03:52:13;21.10;;;13.73;;
19301;SDS011;9785;59.362;12.152;2022-08-19T03:54:42;19.57;;;13.77;;
19301;SDS011;9785;59.362;12.152;2022-08-19T03:57:11;22.13;;;14.37;;
19301;SDS011;9785;59.362;12.152;2022-08-19T03:59:39;18.77;;;12.93;;
19301;SDS011;9785;59.362;12.152;2022-08-19T04:02:08;19.70;;;13.73;;
19301;SDS011;9785;59.362;12.152;2022-08-19T04:04:39;20.77;;;14.20;;
19301;SDS011;9785;59.362;12.152;2022-08-19T04:07:09;18.37;;;13.13;;
19301;SDS011;9785;59.362;12.152;2022-08-19T04:09:39;18.57;;;13.40;;
19301;SDS011;9785;59.362;12.152;2022-08-19T04:12:08;16.73;;;13.20;;
19301;SDS011;9785;59.362;12.152;2022-08-19T04:14:37;14.63;;;12.20;;
19301;SDS011;9785;59.362;12.152;2022-08-19T04:17:05;16.70;;;12.33;;
19301;SDS011;9785;59.362;12.152;2022-08-19T04:19:34;17.83;;;12.10;;
19301;SDS011;9785;59.362;12.152;2022-08-19T04:22:05;15.20;;;12.03;;
19301;SDS011;9785;59.362;12.152;2022-08-19T04:24:33;15.80;;;12.07;;
19301;SDS011;9785;59.362;12.152;2022-08-19T04:27:01;24.83;;;12.70;;
19301;SDS011;9785;59.362;12.152;2022-08-19T04:29:32;14.37;;;11.40;;
19301;SDS011;9785;59.362;12.152;2022-08-19T04:32:01;16.27;;;11.00;;
19301;SDS011;9785;59.362;12.152;2022-08-19T04:34:34;16.50;;;12.20;;
19301;SDS011;9785;59.362;12.152;2022-08-19T04:37:25;15.40;;;11.90;;
19301;SDS011;9785;59.362;12.152;2022-08-19T04:40:00;15.40;;;11.43;;
19301;SDS011;9785;59.362;12.152;2022-08-19T04:42:46;15.70;;;10.73;;
19301;SDS011;9785;59.362;12.152;2022-08-19T04:45:15;17.13;;;11.03;;
19301;SDS011;9785;59.362;12.152;2022-08-19T04:47:43;16.93;;;10.93;;
19301;SDS011;9785;59.362;12.152;2022-08-19T04:50:24;12.77;;;10.40;;
19301;SDS011;9785;59.362;12.152;2022-08-19T04:52:54;16.80;;;11.10;;
19301;SDS011;9785;59.362;12.152;2022-08-19T04:55:23;13.50;;;11.13;;
19301;SDS011;9785;59.362;12.152;2022-08-19T04:57:53;16.07;;;11.27;;
19301;SDS011;9785;59.362;12.152;2022-08-19T05:00:21;15.57;;;10.70;;
19301;SDS011;9785;59.362;12.152;2022-08-19T05:02:50;16.27;;;11.33;;
19301;SDS011;9785;59.362;12.152;2022-08-19T05:05:18;16.93;;;11.10;;
19301;SDS011;9785;59.362;12.152;2022-08-19T05:07:47;15.03;;;10.43;;
19301;SDS011;9785;59.362;12.152;2022-08-19T05:10:17;15.90;;;10.63;;
19301;SDS011;9785;59.362;12.152;2022-08-19T05:12:46;14.37;;;9.93;;
19301;SDS011;9785;59.362;12.152;2022-08-19T05:15:15;14.00;;;10.13;;
19301;SDS011;9785;59.362;12.152;2022-08-19T05:17:43;15.47;;;10.37;;
19301;SDS011;9785;59.362;12.152;2022-08-19T05:20:31;11.73;;;10.07;;
19301;SDS011;9785;59.362;12.152;2022-08-19T05:23:17;14.90;;;10.80;;
19301;SDS011;9785;59.362;12.152;2022-08-19T05:25:49;13.43;;;10.20;;
19301;SDS011;9785;59.362;12.152;2022-08-19T05:28:18;13.13;;;10.47;;
19301;SDS011;9785;59.362;12.152;2022-08-19T05:30:47;11.07;;;9.60;;
19301;SDS011;9785;59.362;12.152;2022-08-19T05:33:17;12.57;;;10.23;;
19301;SDS011;9785;59.362;12.152;2022-08-19T05:35:46;14.93;;;10.57;;
19301;SDS011;9785;59.362;12.152;2022-08-19T05:38:14;11.90;;;9.80;;
19301;SDS011;9785;59.362;12.152;2022-08-19T05:40:43;15.50;;;9.83;;
19301;SDS011;9785;59.362;12.152;2022-08-19T05:43:17;14.83;;;10.73;;
19301;SDS011;9785;59.362;12.152;2022-08-19T05:45:45;13.17;;;10.77;;
19301;SDS011;9785;59.362;12.152;2022-08-19T05:48:13;12.67;;;9.53;;
19301;SDS011;9785;59.362;12.152;2022-08-19T05:50:43;11.40;;;8.97;;
19301;SDS011;9785;59.362;12.152;2022-08-19T05:53:12;13.60;;;9.70;;
19301;SDS011;9785;59.362;12.152;2022-08-19T05:55:42;13.73;;;8.77;;
19301;SDS011;9785;59.362;12.152;2022-08-19T05:58:11;12.67;;;9.63;;
19301;SDS011;9785;59.362;12.152;2022-08-19T06:00:42;11.27;;;9.77;;
19301;SDS011;9785;59.362;12.152;2022-08-19T06:03:10;10.63;;;9.53;;
19301;SDS011;9785;59.362;12.152;2022-08-19T06:05:39;13.37;;;10.00;;
19301;SDS011;9785;59.362;12.152;2022-08-19T06:08:17;13.10;;;10.17;;
19301;SDS011;9785;59.362;12.152;2022-08-19T06:10:58;11.90;;;9.63;;
19301;SDS011;9785;59.362;12.152;2022-08-19T06:13:39;13.30;;;9.87;;
19301;SDS011;9785;59.362;12.152;2022-08-19T06:16:09;12.53;;;9.57;;
19301;SDS011;9785;59.362;12.152;2022-08-19T06:18:37;13.67;;;10.00;;
19301;SDS011;9785;59.362;12.152;2022-08-19T06:21:06;11.57;;;9.13;;
19301;SDS011;9785;59.362;12.152;2022-08-19T06:23:35;12.93;;;9.17;;
19301;SDS011;9785;59.362;12.152;2022-08-19T06:26:03;11.60;;;8.87;;
19301;SDS011;9785;59.362;12.152;2022-08-19T06:28:32;15.00;;;9.80;;
19301;SDS011;9785;59.362;12.152;2022-08-19T06:31:05;14.27;;;9.17;;
19301;SDS011;9785;59.362;12.152;2022-08-19T06:33:35;12.37;;;8.47;;
19301;SDS011;9785;59.362;12.152;2022-08-19T06:36:04;14.30;;;8.90;;
19301;SDS011;9785;59.362;12.152;2022-08-19T06:38:32;10.70;;;8.47;;
19301;SDS011;9785;59.362;12.152;2022-08-19T06:41:02;9.00;;;8.10;;
19301;SDS011;9785;59.362;12.152;2022-08-19T06:43:33;11.93;;;9.00;;
19301;SDS011;9785;59.362;12.152;2022-08-19T06:46:11;10.50;;;8.67;;
19301;SDS011;9785;59.362;12.152;2022-08-19T06:48:41;13.17;;;8.73;;
19301;SDS011;9785;59.362;12.152;2022-08-19T06:51:11;14.63;;;8.47;;
19301;SDS011;9785;59.362;12.152;2022-08-19T06:53:44;10.93;;;8.87;;
19301;SDS011;9785;59.362;12.152;2022-08-19T06:56:14;12.83;;;9.03;;
19301;SDS011;9785;59.362;12.152;2022-08-19T06:58:43;11.87;;;9.13;;
19301;SDS011;9785;59.362;12.152;2022-08-19T07:01:13;11.77;;;8.73;;
19301;SDS011;9785;59.362;12.152;2022-08-19T07:03:42;10.90;;;8.93;;
19301;SDS011;9785;59.362;12.152;2022-08-19T07:06:15;9.70;;;8.30;;
19301;SDS011;9785;59.362;12.152;2022-08-19T07:09:04;9.30;;;8.13;;
19301;SDS011;9785;59.362;12.152;2022-08-19T07:11:33;12.20;;;8.90;;
19301;SDS011;9785;59.362;12.152;2022-08-19T07:14:01;11.27;;;8.83;;
19301;SDS011;9785;59.362;12.152;2022-08-19T07:16:30;12.77;;;8.60;;
19301;SDS011;9785;59.362;12.152;2022-08-19T07:19:00;10.97;;;8.53;;
19301;SDS011;9785;59.362;12.152;2022-08-19T07:21:44;11.53;;;9.03;;
19301;SDS011;9785;59.362;12.152;2022-08-19T07:24:13;13.07;;;9.40;;
19301;SDS011;9785;59.362;12.152;2022-08-19T07:26:43;10.47;;;8.83;;
19301;SDS011;9785;59.362;12.152;2022-08-19T07:29:17;12.03;;;8.93;;
19301;SDS011;9785;59.362;12.152;2022-08-19T07:31:49;11.20;;;8.80;;
19301;SDS011;9785;59.362;12.152;2022-08-19T07:34:20;13.63;;;9.57;;
19301;SDS011;9785;59.362;12.152;2022-08-19T07:36:49;12.83;;;9.30;;
19301;SDS011;9785;59.362;12.152;2022-08-19T07:39:19;15.40;;;10.03;;
19301;SDS011;9785;59.362;12.152;2022-08-19T07:41:48;13.97;;;9.23;;
19301;SDS011;9785;59.362;12.152;2022-08-19T07:44:17;12.03;;;10.00;;
19301;SDS011;9785;59.362;12.152;2022-08-19T07:46:48;12.53;;;9.77;;
19301;SDS011;9785;59.362;12.152;2022-08-19T07:49:18;12.03;;;9.50;;
19301;SDS011;9785;59.362;12.152;2022-08-19T07:51:49;11.80;;;9.53;;
19301;SDS011;9785;59.362;12.152;2022-08-19T07:54:18;13.27;;;9.70;;
19301;SDS011;9785;59.362;12.152;2022-08-19T07:56:47;11.00;;;9.80;;
19301;SDS011;9785;59.362;12.152;2022-08-19T07:59:18;10.57;;;9.27;;
19301;SDS011;9785;59.362;12.152;2022-08-19T08:01:47;10.70;;;9.53;;
19301;SDS011;9785;59.362;12.152;2022-08-19T08:04:16;10.60;;;9.50;;
19301;SDS011;9785;59.362;12.152;2022-08-19T08:07:04;11.95;;;9.70;;
19301;SDS011;9785;59.362;12.152;2022-08-19T08:09:57;12.13;;;9.95;;
19301;SDS011;9785;59.362;12.152;2022-08-19T08:12:30;9.90;;;8.40;;
19301;SDS011;9785;59.362;12.152;2022-08-19T08:15:03;10.25;;;8.95;;
19301;SDS011;9785;59.362;12.152;2022-08-19T08:17:38;11.77;;;8.80;;
19301;SDS011;9785;59.362;12.152;2022-08-19T08:20:17;12.17;;;8.50;;
19301;SDS011;9785;59.362;12.152;2022-08-19T08:22:47;9.80;;;8.83;;
19301;SDS011;9785;59.362;12.152;2022-08-19T08:25:34;9.53;;;8.60;;
19301;SDS011;9785;59.362;12.152;2022-08-19T08:28:03;11.63;;;9.47;;
19301;SDS011;9785;59.362;12.152;2022-08-19T08:30:31;9.57;;;8.50;;
19301;SDS011;9785;59.362;12.152;2022-08-19T08:33:02;9.40;;;8.50;;
19301;SDS011;9785;59.362;12.152;2022-08-19T08:35:31;10.17;;;8.60;;
19301;SDS011;9785;59.362;12.152;2022-08-19T08:38:02;11.30;;;8.43;;
19301;SDS011;9785;59.362;12.152;2022-08-19T08:40:33;9.20;;;8.30;;
19301;SDS011;9785;59.362;12.152;2022-08-19T08:43:07;10.43;;;9.27;;
19301;SDS011;9785;59.362;12.152;2022-08-19T08:45:38;9.73;;;8.80;;
19301;SDS011;9785;59.362;12.152;2022-08-19T08:48:12;10.07;;;9.07;;
19301;SDS011;9785;59.362;12.152;2022-08-19T08:50:49;11.20;;;8.60;;
19301;SDS011;9785;59.362;12.152;2022-08-19T08:53:21;9.57;;;8.55;;
19301;SDS011;9785;59.362;12.152;2022-08-19T08:55:56;10.88;;;8.75;;
19301;SDS011;9785;59.362;12.152;2022-08-19T08:58:27;8.48;;;7.68;;
19301;SDS011;9785;59.362;12.152;2022-08-19T09:00:57;15.40;;;8.45;;
19301;SDS011;9785;59.362;12.152;2022-08-19T09:03:26;13.27;;;8.93;;
19301;SDS011;9785;59.362;12.152;2022-08-19T09:05:58;11.80;;;9.15;;
19301;SDS011;9785;59.362;12.152;2022-08-19T09:08:32;9.60;;;8.57;;
19301;SDS011;9785;59.362;12.152;2022-08-19T09:11:03;9.45;;;8.45;;
19301;SDS011;9785;59.362;12.152;2022-08-19T09:13:35;9.27;;;8.38;;
19301;SDS011;9785;59.362;12.152;2022-08-19T09:16:06;10.07;;;8.57;;
19301;SDS011;9785;59.362;12.152;2022-08-19T09:18:39;8.73;;;7.63;;
19301;SDS011;9785;59.362;12.152;2022-08-19T09:21:07;8.65;;;7.78;;
19301;SDS011;9785;59.362;12.152;2022-08-19T09:23:37;7.80;;;7.10;;
19301;SDS011;9785;59.362;12.152;2022-08-19T09:26:06;7.28;;;6.60;;
19301;SDS011;9785;59.362;12.152;2022-08-19T09:28:35;7.28;;;6.35;;
19301;SDS011;9785;59.362;12.152;2022-08-19T09:31:09;8.57;;;7.78;;
19301;SDS011;9785;59.362;12.152;2022-08-19T09:33:37;7.97;;;7.20;;
19301;SDS011;9785;59.362;12.152;2022-08-19T09:36:07;8.63;;;7.80;;
19301;SDS011;9785;59.362;12.152;2022-08-19T09:38:38;10.07;;;7.63;;
19301;SDS011;9785;59.362;12.152;2022-08-19T09:41:09;8.35;;;7.55;;
19301;SDS011;9785;59.362;12.152;2022-08-19T09:43:39;8.07;;;7.38;;
19301;SDS011;9785;59.362;12.152;2022-08-19T09:46:09;8.60;;;7.78;;
19301;SDS011;9785;59.362;12.152;2022-08-19T09:48:43;8.27;;;7.57;;
19301;SDS011;9785;59.362;12.152;2022-08-19T09:51:15;9.80;;;7.97;;
19301;SDS011;9785;59.362;12.152;2022-08-19T09:53:48;9.63;;;7.97;;
19301;SDS011;9785;59.362;12.152;2022-08-19T09:56:18;8.68;;;7.75;;
19301;SDS011;9785;59.362;12.152;2022-08-19T09:58:47;8.80;;;8.00;;
19301;SDS011;9785;59.362;12.152;2022-08-19T10:01:16;7.70;;;6.93;;
19301;SDS011;9785;59.362;12.152;2022-08-19T10:03:46;9.68;;;6.95;;
19301;SDS011;9785;59.362;12.152;2022-08-19T10:06:17;8.27;;;7.47;;
19301;SDS011;9785;59.362;12.152;2022-08-19T10:09:07;9.93;;;7.50;;
19301;SDS011;9785;59.362;12.152;2022-08-19T10:11:39;7.57;;;6.88;;
19301;SDS011;9785;59.362;12.152;2022-08-19T10:14:17;7.45;;;6.20;;
19301;SDS011;9785;59.362;12.152;2022-08-19T10:16:48;7.38;;;6.72;;
19301;SDS011;9785;59.362;12.152;2022-08-19T10:19:18;7.30;;;6.55;;
19301;SDS011;9785;59.362;12.152;2022-08-19T10:21:51;7.40;;;6.60;;
19301;SDS011;9785;59.362;12.152;2022-08-19T10:24:27;6.05;;;5.55;;
19301;SDS011;9785;59.362;12.152;2022-08-19T10:26:57;7.03;;;6.32;;
19301;SDS011;9785;59.362;12.152;2022-08-19T10:29:25;7.20;;;6.28;;
19301;SDS011;9785;59.362;12.152;2022-08-19T10:31:58;8.07;;;6.97;;
19301;SDS011;9785;59.362;12.152;2022-08-19T10:34:28;7.22;;;6.57;;
19301;SDS011;9785;59.362;12.152;2022-08-19T10:36:57;7.80;;;6.97;;
19301;SDS011;9785;59.362;12.152;2022-08-19T10:39:29;6.55;;;5.95;;
19301;SDS011;9785;59.362;12.152;2022-08-19T10:42:08;7.82;;;7.03;;
19301;SDS011;9785;59.362;12.152;2022-08-19T10:44:39;7.53;;;6.82;;
19301;SDS011;9785;59.362;12.152;2022-08-19T10:47:08;6.50;;;5.93;;
19301;SDS011;9785;59.362;12.152;2022-08-19T10:49:50;6.55;;;5.95;;
19301;SDS011;9785;59.362;12.152;2022-08-19T10:52:39;6.53;;;5.93;;
19301;SDS011;9785;59.362;12.152;2022-08-19T10:55:17;6.60;;;6.10;;
19301;SDS011;9785;59.362;12.152;2022-08-19T10:58:03;5.95;;;5.55;;
19301;SDS011;9785;59.362;12.152;2022-08-19T11:00:35;7.13;;;6.47;;
19301;SDS011;9785;59.362;12.152;2022-08-19T11:03:04;7.57;;;6.20;;
19301;SDS011;9785;59.362;12.152;2022-08-19T11:05:34;6.03;;;5.53;;
19301;SDS011;9785;59.362;12.152;2022-08-19T11:08:05;5.93;;;5.43;;
19301;SDS011;9785;59.362;12.152;2022-08-19T11:10:51;6.55;;;5.97;;
19301;SDS011;9785;59.362;12.152;2022-08-19T11:13:24;6.97;;;5.35;;
19301;SDS011;9785;59.362;12.152;2022-08-19T11:15:56;5.78;;;5.32;;
19301;SDS011;9785;59.362;12.152;2022-08-19T11:18:31;6.53;;;5.95;;
19301;SDS011;9785;59.362;12.152;2022-08-19T11:21:07;6.05;;;5.50;;
19301;SDS011;9785;59.362;12.152;2022-08-19T11:23:36;5.80;;;5.22;;
19301;SDS011;9785;59.362;12.152;2022-08-19T11:26:06;6.45;;;5.28;;
19301;SDS011;9785;59.362;12.152;2022-08-19T11:28:35;6.15;;;5.70;;
19301;SDS011;9785;59.362;12.152;2022-08-19T11:31:06;5.68;;;5.28;;
19301;SDS011;9785;59.362;12.152;2022-08-19T11:33:38;6.68;;;4.88;;
19301;SDS011;9785;59.362;12.152;2022-08-19T11:36:06;6.15;;;5.55;;
19301;SDS011;9785;59.362;12.152;2022-08-19T11:38:40;6.15;;;5.55;;
19301;SDS011;9785;59.362;12.152;2022-08-19T11:41:10;5.90;;;5.40;;
19301;SDS011;9785;59.362;12.152;2022-08-19T11:43:39;5.75;;;5.30;;
19301;SDS011;9785;59.362;12.152;2022-08-19T11:46:10;6.13;;;5.63;;
19301;SDS011;9785;59.362;12.152;2022-08-19T11:48:39;5.55;;;5.05;;
19301;SDS011;9785;59.362;12.152;2022-08-19T11:51:08;5.47;;;5.07;;
19301;SDS011;9785;59.362;12.152;2022-08-19T11:53:37;4.78;;;4.35;;
19301;SDS011;9785;59.362;12.152;2022-08-19T11:56:06;5.10;;;4.70;;
19301;SDS011;9785;59.362;12.152;2022-08-19T11:58:37;5.45;;;4.93;;
19301;SDS011;9785;59.362;12.152;2022-08-19T12:01:08;5.30;;;4.80;;
19301;SDS011;9785;59.362;12.152;2022-08-19T12:03:37;5.60;;;4.70;;
19301;SDS011;9785;59.362;12.152;2022-08-19T12:06:07;5.78;;;5.28;;
19301;SDS011;9785;59.362;12.152;2022-08-19T12:08:36;5.47;;;5.07;;
19301;SDS011;9785;59.362;12.152;2022-08-19T12:11:05;5.47;;;5.07;;
19301;SDS011;9785;59.362;12.152;2022-08-19T12:13:34;5.82;;;5.32;;
19301;SDS011;9785;59.362;12.152;2022-08-19T12:16:08;6.30;;;5.82;;
19301;SDS011;9785;59.362;12.152;2022-08-19T12:18:37;5.85;;;5.22;;
19301;SDS011;9785;59.362;12.152;2022-08-19T12:21:08;6.40;;;5.80;;
19301;SDS011;9785;59.362;12.152;2022-08-19T12:23:37;6.03;;;5.57;;
19301;SDS011;9785;59.362;12.152;2022-08-19T12:26:05;6.15;;;5.70;;
19301;SDS011;9785;59.362;12.152;2022-08-19T12:28:34;7.35;;;5.90;;
19301;SDS011;9785;59.362;12.152;2022-08-19T12:31:03;7.05;;;5.88;;
19301;SDS011;9785;59.362;12.152;2022-08-19T12:33:33;5.95;;;5.45;;
19301;SDS011;9785;59.362;12.152;2022-08-19T12:36:02;5.97;;;5.40;;
19301;SDS011;9785;59.362;12.152;2022-08-19T12:38:32;8.73;;;5.53;;
19301;SDS011;9785;59.362;12.152;2022-08-19T12:41:02;9.63;;;4.93;;
19301;SDS011;9785;59.362;12.152;2022-08-19T12:43:33;7.68;;;5.53;;
19301;SDS011;9785;59.362;12.152;2022-08-19T12:46:02;5.28;;;4.82;;
19301;SDS011;9785;59.362;12.152;2022-08-19T12:48:30;5.93;;;5.38;;
19301;SDS011;9785;59.362;12.152;2022-08-19T12:51:05;5.45;;;5.05;;
19301;SDS011;9785;59.362;12.152;2022-08-19T12:53:34;5.43;;;5.03;;
19301;SDS011;9785;59.362;12.152;2022-08-19T12:56:04;5.45;;;5.00;;
19301;SDS011;9785;59.362;12.152;2022-08-19T12:58:37;4.97;;;4.68;;
19301;SDS011;9785;59.362;12.152;2022-08-19T13:01:16;6.70;;;5.07;;
19301;SDS011;9785;59.362;12.152;2022-08-19T13:03:48;4.72;;;4.25;;
19301;SDS011;9785;59.362;12.152;2022-08-19T13:06:19;5.43;;;4.93;;
19301;SDS011;9785;59.362;12.152;2022-08-19T13:08:49;5.10;;;4.68;;
19301;SDS011;9785;59.362;12.152;2022-08-19T13:11:23;5.43;;;4.97;;
19301;SDS011;9785;59.362;12.152;2022-08-19T13:13:51;5.07;;;4.57;;
19301;SDS011;9785;59.362;12.152;2022-08-19T13:16:21;5.43;;;4.93;;
19301;SDS011;9785;59.362;12.152;2022-08-19T13:18:50;5.35;;;4.88;;
19301;SDS011;9785;59.362;12.152;2022-08-19T13:21:21;5.40;;;4.60;;
19301;SDS011;9785;59.362;12.152;2022-08-19T13:23:50;4.60;;;4.40;;
19301;SDS011;9785;59.362;12.152;2022-08-19T13:26:19;4.97;;;4.60;;
19301;SDS011;9785;59.362;12.152;2022-08-19T13:28:48;5.07;;;4.68;;
19301;SDS011;9785;59.362;12.152;2022-08-19T13:31:34;4.55;;;4.25;;
19301;SDS011;9785;59.362;12.152;2022-08-19T13:34:25;5.40;;;4.88;;
19301;SDS011;9785;59.362;12.152;2022-08-19T13:36:57;5.40;;;4.60;;
19301;SDS011;9785;59.362;12.152;2022-08-19T13:39:26;6.50;;;4.55;;
19301;SDS011;9785;59.362;12.152;2022-08-19T13:41:54;4.80;;;4.40;;
19301;SDS011;9785;59.362;12.152;2022-08-19T13:44:25;5.28;;;4.88;;
19301;SDS011;9785;59.362;12.152;2022-08-19T13:46:59;6.00;;;5.28;;
19301;SDS011;9785;59.362;12.152;2022-08-19T13:49:32;5.63;;;4.95;;
19301;SDS011;9785;59.362;12.152;2022-08-19T13:52:03;5.60;;;5.20;;
19301;SDS011;9785;59.362;12.152;2022-08-19T13:54:31;5.43;;;5.05;;
19301;SDS011;9785;59.362;12.152;2022-08-19T13:57:00;5.70;;;5.20;;
19301;SDS011;9785;59.362;12.152;2022-08-19T13:59:28;5.70;;;5.10;;
19301;SDS011;9785;59.362;12.152;2022-08-19T14:01:57;5.80;;;5.00;;
19301;SDS011;9785;59.362;12.152;2022-08-19T14:04:26;5.60;;;5.07;;
19301;SDS011;9785;59.362;12.152;2022-08-19T14:06:54;5.28;;;4.90;;
19301;SDS011;9785;59.362;12.152;2022-08-19T14:09:24;5.05;;;4.63;;
19301;SDS011;9785;59.362;12.152;2022-08-19T14:11:52;5.57;;;5.10;;
19301;SDS011;9785;59.362;12.152;2022-08-19T14:14:21;5.93;;;5.50;;
19301;SDS011;9785;59.362;12.152;2022-08-19T14:16:50;5.38;;;4.88;;
19301;SDS011;9785;59.362;12.152;2022-08-19T14:19:18;5.10;;;4.75;;
19301;SDS011;9785;59.362;12.152;2022-08-19T14:21:48;5.65;;;5.18;;
19301;SDS011;9785;59.362;12.152;2022-08-19T14:24:17;5.55;;;5.07;;
19301;SDS011;9785;59.362;12.152;2022-08-19T14:26:47;7.03;;;5.30;;
19301;SDS011;9785;59.362;12.152;2022-08-19T14:29:15;5.57;;;5.07;;
19301;SDS011;9785;59.362;12.152;2022-08-19T14:31:44;5.78;;;5.30;;
19301;SDS011;9785;59.362;12.152;2022-08-19T14:34:12;5.85;;;5.45;;
19301;SDS011;9785;59.362;12.152;2022-08-19T14:36:41;5.82;;;5.40;;
19301;SDS011;9785;59.362;12.152;2022-08-19T14:39:11;6.10;;;5.60;;
19301;SDS011;9785;59.362;12.152;2022-08-19T14:41:39;5.53;;;5.13;;
19301;SDS011;9785;59.362;12.152;2022-08-19T14:44:10;6.45;;;5.40;;
19301;SDS011;9785;59.362;12.152;2022-08-19T14:46:39;6.07;;;5.57;;
19301;SDS011;9785;59.362;12.152;2022-08-19T14:49:15;5.53;;;5.22;;
19301;SDS011;9785;59.362;12.152;2022-08-19T14:51:44;5.68;;;5.25;;
19301;SDS011;9785;59.362;12.152;2022-08-19T14:54:13;5.82;;;5.40;;
19301;SDS011;9785;59.362;12.152;2022-08-19T14:56:41;6.15;;;5.65;;
19301;SDS011;9785;59.362;12.152;2022-08-19T14:59:11;6.80;;;6.05;;